createdAt,value
2018-09-06T00:00:07.802Z,32
2018-09-06T00:01:13.412Z,32
2018-09-06T00:02:18.011Z,32
2018-09-06T00:03:23.455Z,32
2018-09-06T00:04:29.504Z,32
2018-09-06T00:05:34.976Z,32
2018-09-06T00:06:40.877Z,32
2018-09-06T00:07:45.535Z,32
2018-09-06T00:08:49.601Z,32
2018-09-06T00:09:55.020Z,32
2018-09-06T00:11:00.269Z,32
2018-09-06T00:12:05.451Z,32
2018-09-06T00:13:10.620Z,32
2018-09-06T00:14:15.534Z,32
2018-09-06T00:15:21.055Z,32
2018-09-06T00:16:27.139Z,32
2018-09-06T00:17:32.578Z,32
2018-09-06T00:18:38.145Z,32
2018-09-06T00:19:43.311Z,32
2018-09-06T00:20:48.627Z,32
2018-09-06T00:21:54.068Z,32
2018-09-06T00:22:59.566Z,32
2018-09-06T00:24:05.021Z,32
2018-09-06T00:25:10.724Z,32
2018-09-06T00:26:16.192Z,32
2018-09-06T00:27:20.490Z,32
2018-09-06T00:28:25.754Z,32
2018-09-06T00:29:30.914Z,32
2018-09-06T00:30:36.551Z,32
2018-09-06T00:31:42.042Z,32
2018-09-06T00:32:46.918Z,32
2018-09-06T00:33:51.898Z,32
2018-09-06T00:34:56.517Z,32
2018-09-06T00:36:01.994Z,32
2018-09-06T00:37:06.859Z,32
2018-09-06T00:38:12.303Z,32
2018-09-06T00:39:17.747Z,32
2018-09-06T00:40:23.545Z,32
2018-09-06T00:41:28.777Z,32
2018-09-06T00:42:34.447Z,32
2018-09-06T00:43:39.949Z,32
2018-09-06T00:44:45.113Z,32
2018-09-06T00:45:50.582Z,32
2018-09-06T00:46:55.840Z,32
2018-09-06T00:48:01.366Z,32
2018-09-06T00:49:06.208Z,32
2018-09-06T00:50:11.647Z,32
2018-09-06T00:51:16.236Z,32
2018-09-06T00:52:21.353Z,32
2018-09-06T00:53:26.810Z,32
2018-09-06T00:54:32.280Z,32
2018-09-06T00:55:37.734Z,32
2018-09-06T00:56:42.609Z,32
2018-09-06T00:57:48.162Z,32
2018-09-06T00:58:53.338Z,32
2018-09-06T00:59:58.265Z,32
2018-09-06T01:01:03.956Z,32
2018-09-06T01:02:08.568Z,32
2018-09-06T01:03:13.423Z,32
2018-09-06T01:04:18.453Z,32
2018-09-06T01:05:23.307Z,32
2018-09-06T01:06:28.474Z,32
2018-09-06T01:07:33.625Z,32
2018-09-06T01:08:39.139Z,32
2018-09-06T01:09:44.268Z,32
2018-09-06T01:10:49.486Z,32
2018-09-06T01:11:54.628Z,32
2018-09-06T01:13:00.056Z,32
2018-09-06T01:14:04.934Z,32
2018-09-06T01:15:09.921Z,32
2018-09-06T01:16:15.602Z,32
2018-09-06T01:17:20.509Z,32
2018-09-06T01:19:45.213Z,32
2018-09-06T01:20:50.424Z,32
2018-09-06T01:21:56.268Z,32
2018-09-06T01:23:01.815Z,32
2018-09-06T01:24:06.204Z,32
2018-09-06T01:25:12.459Z,32
2018-09-06T01:26:17.955Z,32
2018-09-06T01:27:23.111Z,32
2018-09-06T01:28:43.447Z,32
2018-09-06T01:29:48.607Z,32
2018-09-06T01:30:53.722Z,32
2018-09-06T01:31:58.966Z,32
2018-09-06T01:33:04.151Z,32
2018-09-06T01:34:09.881Z,32
2018-09-06T01:35:15.109Z,32
2018-09-06T01:36:20.261Z,32
2018-09-06T01:37:25.463Z,32
2018-09-06T01:38:30.723Z,32
2018-09-06T01:39:36.701Z,32
2018-09-06T01:40:41.873Z,32
2018-09-06T01:41:47.024Z,32
2018-09-06T01:42:52.532Z,32
2018-09-06T01:43:57.421Z,32
2018-09-06T01:45:01.997Z,32
2018-09-06T01:46:07.075Z,32
2018-09-06T01:47:11.995Z,32
2018-09-06T01:48:16.917Z,32
2018-09-06T01:49:22.340Z,32
2018-09-06T01:50:27.476Z,32
2018-09-06T01:51:32.844Z,32
2018-09-06T01:52:38.327Z,32
2018-09-06T01:53:43.480Z,32
2018-09-06T01:54:49.095Z,32
2018-09-06T01:55:53.948Z,32
2018-09-06T01:56:59.127Z,32
2018-09-06T01:58:04.807Z,32
2018-09-06T01:59:09.988Z,32
2018-09-06T02:00:14.873Z,32
2018-09-06T02:01:20.157Z,32
2018-09-06T02:02:25.355Z,32
2018-09-06T02:03:31.202Z,32
2018-09-06T02:04:36.072Z,32
2018-09-06T02:05:41.231Z,32
2018-09-06T02:06:46.729Z,32
2018-09-06T02:07:51.622Z,32
2018-09-06T02:08:56.769Z,32
2018-09-06T02:10:02.510Z,32
2018-09-06T02:11:07.144Z,32
2018-09-06T02:12:12.559Z,32
2018-09-06T02:13:18.250Z,32
2018-09-06T02:14:23.417Z,32
2018-09-06T02:15:29.144Z,32
2018-09-06T02:16:33.728Z,32
2018-09-06T02:17:39.157Z,32
2018-09-06T02:18:44.886Z,32
2018-09-06T02:19:50.315Z,32
2018-09-06T02:20:55.192Z,32
2018-09-06T02:22:00.881Z,32
2018-09-06T02:23:06.356Z,32
2018-09-06T02:24:11.547Z,32
2018-09-06T02:25:17.386Z,32
2018-09-06T02:26:22.536Z,32
2018-09-06T02:27:28.418Z,32
2018-09-06T02:28:32.718Z,32
2018-09-06T02:29:37.976Z,32
2018-09-06T02:30:43.536Z,32
2018-09-06T02:31:48.970Z,32
2018-09-06T02:32:54.232Z,32
2018-09-06T02:34:00.118Z,32
2018-09-06T02:35:05.278Z,32
2018-09-06T02:36:10.213Z,32
2018-09-06T02:37:16.010Z,32
2018-09-06T02:38:21.437Z,32
2018-09-06T02:39:26.675Z,32
2018-09-06T02:40:32.032Z,32
2018-09-06T02:41:37.510Z,32
2018-09-06T02:42:43.339Z,32
2018-09-06T02:43:48.304Z,32
2018-09-06T02:44:53.503Z,32
2018-09-06T02:45:58.900Z,32
2018-09-06T02:47:04.053Z,32
2018-09-06T02:48:09.515Z,32
2018-09-06T02:49:14.949Z,32
2018-09-06T02:50:20.433Z,32
2018-09-06T02:51:26.880Z,32
2018-09-06T02:52:32.689Z,32
2018-09-06T02:53:37.571Z,32
2018-09-06T02:54:43.183Z,32
2018-09-06T02:55:48.344Z,32
2018-09-06T02:56:53.800Z,32
2018-09-06T02:57:59.483Z,32
2018-09-06T02:59:04.682Z,32
2018-09-06T03:00:10.195Z,32
2018-09-06T03:01:15.654Z,32
2018-09-06T03:02:21.144Z,32
2018-09-06T03:03:27.469Z,32
2018-09-06T03:04:32.385Z,32
2018-09-06T03:05:37.814Z,32
2018-09-06T03:06:43.685Z,32
2018-09-06T03:07:49.125Z,32
2018-09-06T03:08:54.064Z,32
2018-09-06T03:09:59.892Z,32
2018-09-06T03:11:04.757Z,32
2018-09-06T03:12:09.621Z,32
2018-09-06T03:13:15.346Z,31
2018-09-06T03:14:20.508Z,32
2018-09-06T03:15:25.615Z,31
2018-09-06T03:16:32.615Z,31
2018-09-06T03:17:36.923Z,31
2018-09-06T03:18:42.486Z,31
2018-09-06T03:19:47.911Z,31
2018-09-06T03:20:53.063Z,31
2018-09-06T03:21:58.675Z,31
2018-09-06T03:23:03.841Z,31
2018-09-06T03:24:08.990Z,31
2018-09-06T03:25:14.386Z,31
2018-09-06T03:26:19.818Z,31
2018-09-06T03:27:25.283Z,31
2018-09-06T03:28:45.065Z,31
2018-09-06T03:29:49.925Z,31
2018-09-06T03:30:55.767Z,31
2018-09-06T03:32:00.931Z,31
2018-09-06T03:33:05.512Z,31
2018-09-06T03:34:11.199Z,31
2018-09-06T03:35:16.103Z,31
2018-09-06T03:36:20.971Z,31
2018-09-06T03:37:26.958Z,31
2018-09-06T03:38:31.541Z,31
2018-09-06T03:39:36.935Z,31
2018-09-06T03:40:42.095Z,31
2018-09-06T03:41:47.539Z,31
2018-09-06T03:42:53.375Z,31
2018-09-06T03:43:58.833Z,31
2018-09-06T03:45:03.120Z,31
2018-09-06T03:46:08.771Z,31
2018-09-06T03:47:14.197Z,31
2018-09-06T03:48:19.064Z,31
2018-09-06T03:49:24.499Z,31
2018-09-06T03:50:29.085Z,31
2018-09-06T03:51:34.873Z,31
2018-09-06T03:52:40.123Z,31
2018-09-06T03:53:45.550Z,31
2018-09-06T03:54:51.399Z,31
2018-09-06T03:55:56.832Z,31
2018-09-06T03:57:01.692Z,31
2018-09-06T03:58:06.918Z,31
2018-09-06T03:59:12.179Z,31
2018-09-06T04:00:17.329Z,31
2018-09-06T04:01:22.592Z,31
2018-09-06T04:02:28.115Z,30
2018-09-06T04:03:33.120Z,29
2018-09-06T04:04:38.357Z,29
2018-09-06T04:05:43.537Z,29
2018-09-06T04:06:49.290Z,29
2018-09-06T04:07:54.198Z,29
2018-09-06T04:08:59.442Z,29
2018-09-06T04:10:05.163Z,30
2018-09-06T04:11:10.036Z,30
2018-09-06T04:12:15.187Z,30
2018-09-06T04:13:20.868Z,30
2018-09-06T04:14:26.394Z,30
2018-09-06T04:15:31.393Z,30
2018-09-06T04:16:36.871Z,30
2018-09-06T04:17:41.828Z,30
2018-09-06T04:18:46.813Z,31
2018-09-06T04:19:52.227Z,31
2018-09-06T04:20:57.421Z,31
2018-09-06T04:22:02.564Z,31
2018-09-06T04:23:08.001Z,31
2018-09-06T04:24:12.651Z,31
2018-09-06T04:25:18.321Z,31
2018-09-06T04:26:23.495Z,31
2018-09-06T04:27:29.046Z,31
2018-09-06T04:28:33.985Z,31
2018-09-06T04:29:39.413Z,31
2018-09-06T04:30:44.935Z,31
2018-09-06T04:31:50.118Z,31
2018-09-06T04:32:55.000Z,31
2018-09-06T04:34:00.259Z,32
2018-09-06T04:35:05.122Z,31
2018-09-06T04:36:10.773Z,32
2018-09-06T04:37:16.675Z,32
2018-09-06T04:38:21.550Z,32
2018-09-06T04:39:41.597Z,32
2018-09-06T04:40:46.791Z,32
2018-09-06T04:41:51.946Z,32
2018-09-06T04:42:57.080Z,32
2018-09-06T04:44:02.052Z,32
2018-09-06T04:45:07.486Z,32
2018-09-06T04:46:12.660Z,32
2018-09-06T04:47:17.511Z,32
2018-09-06T04:48:22.421Z,32
2018-09-06T04:49:28.429Z,32
2018-09-06T04:50:33.930Z,32
2018-09-06T04:51:39.903Z,32
2018-09-06T04:52:45.431Z,32
2018-09-06T04:53:50.859Z,32
2018-09-06T04:54:55.619Z,32
2018-09-06T04:56:00.477Z,32
2018-09-06T04:57:05.115Z,32
2018-09-06T04:58:10.616Z,32
2018-09-06T04:59:15.783Z,32
2018-09-06T05:00:20.686Z,32
2018-09-06T05:01:26.375Z,32
2018-09-06T05:02:31.529Z,32
2018-09-06T05:03:37.098Z,32
2018-09-06T05:04:42.235Z,32
2018-09-06T05:05:47.694Z,32
2018-09-06T05:06:53.227Z,32
2018-09-06T05:07:57.812Z,32
2018-09-06T05:09:02.663Z,32
2018-09-06T05:10:07.919Z,32
2018-09-06T05:11:12.857Z,32
2018-09-06T05:12:18.009Z,32
2018-09-06T05:13:22.987Z,33
2018-09-06T05:14:27.847Z,33
2018-09-06T05:15:32.689Z,33
2018-09-06T05:16:38.117Z,33
2018-09-06T05:17:43.268Z,33
2018-09-06T05:18:48.824Z,33
2018-09-06T05:19:54.675Z,33
2018-09-06T05:20:59.833Z,33
2018-09-06T05:22:05.428Z,33
2018-09-06T05:23:11.185Z,33
2018-09-06T05:24:16.058Z,33
2018-09-06T05:25:21.796Z,33
2018-09-06T05:26:27.226Z,33
2018-09-06T05:27:32.341Z,33
2018-09-06T05:28:37.250Z,33
2018-09-06T05:29:42.454Z,33
2018-09-06T05:30:48.030Z,33
2018-09-06T05:31:53.991Z,33
2018-09-06T05:32:58.936Z,33
2018-09-06T05:34:04.618Z,33
2018-09-06T05:35:09.729Z,33
2018-09-06T05:36:15.867Z,33
2018-09-06T05:37:22.554Z,33
2018-09-06T05:38:27.987Z,33
2018-09-06T05:39:34.179Z,33
2018-09-06T05:40:39.359Z,33
2018-09-06T05:41:44.796Z,33
2018-09-06T05:42:50.496Z,33
2018-09-06T05:43:55.648Z,33
2018-09-06T05:45:00.812Z,33
2018-09-06T05:46:06.243Z,33
2018-09-06T05:47:11.388Z,33
2018-09-06T05:48:16.845Z,33
2018-09-06T05:49:22.524Z,33
2018-09-06T05:50:27.689Z,33
2018-09-06T05:51:33.618Z,33
2018-09-06T05:52:37.950Z,33
2018-09-06T05:53:43.383Z,33
2018-09-06T05:54:49.235Z,33
2018-09-06T05:55:54.006Z,34
2018-09-06T05:56:59.460Z,33
2018-09-06T05:58:05.462Z,33
2018-09-06T05:59:11.431Z,33
2018-09-06T06:00:16.611Z,34
2018-09-06T06:01:22.104Z,34
2018-09-06T06:02:27.539Z,33
2018-09-06T06:03:32.838Z,34
2018-09-06T06:04:38.383Z,33
2018-09-06T06:05:43.871Z,34
2018-09-06T06:06:49.170Z,34
2018-09-06T06:07:54.026Z,34
2018-09-06T06:08:59.244Z,34
2018-09-06T06:10:04.688Z,34
2018-09-06T06:11:10.242Z,34
2018-09-06T06:12:15.673Z,34
2018-09-06T06:13:20.781Z,34
2018-09-06T06:14:25.973Z,34
2018-09-06T06:15:31.228Z,34
2018-09-06T06:16:36.425Z,34
2018-09-06T06:17:41.634Z,34
2018-09-06T06:18:47.231Z,34
2018-09-06T06:19:52.774Z,34
2018-09-06T06:20:58.107Z,34
2018-09-06T06:22:03.240Z,34
2018-09-06T06:23:08.383Z,34
2018-09-06T06:24:14.017Z,34
2018-09-06T06:25:19.781Z,34
2018-09-06T06:26:24.923Z,34
2018-09-06T06:27:30.898Z,34
2018-09-06T06:28:36.331Z,34
2018-09-06T06:29:41.786Z,34
2018-09-06T06:30:47.568Z,34
2018-09-06T06:31:52.163Z,34
2018-09-06T06:32:57.184Z,34
2018-09-06T06:34:02.852Z,34
2018-09-06T06:35:08.249Z,34
2018-09-06T06:36:13.680Z,34
2018-09-06T06:37:19.360Z,34
2018-09-06T06:38:24.792Z,34
2018-09-06T06:39:30.316Z,34
2018-09-06T06:40:36.045Z,35
2018-09-06T06:41:40.930Z,35
2018-09-06T06:42:46.079Z,34
2018-09-06T06:43:51.507Z,34
2018-09-06T06:44:56.368Z,34
2018-09-06T06:46:01.217Z,34
2018-09-06T06:47:06.369Z,34
2018-09-06T06:48:11.305Z,35
2018-09-06T06:49:16.121Z,35
2018-09-06T06:50:20.771Z,35
2018-09-06T06:51:41.333Z,35
2018-09-06T06:52:46.290Z,35
2018-09-06T06:53:51.777Z,35
2018-09-06T06:54:57.167Z,35
2018-09-06T06:56:02.318Z,35
2018-09-06T06:57:07.573Z,35
2018-09-06T06:58:12.997Z,35
2018-09-06T06:59:18.156Z,35
2018-09-06T07:00:23.046Z,35
2018-09-06T07:01:28.995Z,35
2018-09-06T07:02:33.991Z,35
2018-09-06T07:03:38.873Z,35
2018-09-06T07:04:43.775Z,35
2018-09-06T07:05:48.691Z,35
2018-09-06T07:06:54.011Z,35
2018-09-06T07:07:59.683Z,35
2018-09-06T07:09:04.844Z,35
2018-09-06T07:10:09.725Z,35
2018-09-06T07:11:14.716Z,35
2018-09-06T07:12:20.140Z,35
2018-09-06T07:13:25.499Z,36
2018-09-06T07:14:30.925Z,35
2018-09-06T07:15:36.257Z,36
2018-09-06T07:16:41.683Z,36
2018-09-06T07:17:46.833Z,35
2018-09-06T07:18:52.276Z,36
2018-09-06T07:19:57.440Z,35
2018-09-06T07:21:02.747Z,36
2018-09-06T07:22:08.456Z,36
2018-09-06T07:23:13.889Z,36
2018-09-06T07:24:19.053Z,36
2018-09-06T07:25:24.695Z,36
2018-09-06T07:26:29.836Z,36
2018-09-06T07:27:35.253Z,36
2018-09-06T07:28:40.833Z,36
2018-09-06T07:29:46.272Z,36
2018-09-06T07:30:51.473Z,35
2018-09-06T07:31:56.665Z,36
2018-09-06T07:33:01.260Z,36
2018-09-06T07:34:05.902Z,36
2018-09-06T07:35:11.426Z,36
2018-09-06T07:36:16.673Z,36
2018-09-06T07:37:22.230Z,36
2018-09-06T07:38:27.640Z,36
2018-09-06T07:39:33.351Z,36
2018-09-06T07:40:38.507Z,36
2018-09-06T07:41:43.949Z,36
2018-09-06T07:42:49.839Z,36
2018-09-06T07:43:54.993Z,36
2018-09-06T07:44:59.593Z,35
2018-09-06T07:46:05.064Z,36
2018-09-06T07:47:09.646Z,36
2018-09-06T07:48:15.136Z,36
2018-09-06T07:49:21.032Z,36
2018-09-06T07:50:25.683Z,35
2018-09-06T07:51:31.674Z,36
2018-09-06T07:52:37.256Z,36
2018-09-06T07:53:42.415Z,36
2018-09-06T07:54:47.596Z,36
2018-09-06T07:55:52.513Z,36
2018-09-06T07:56:57.761Z,36
2018-09-06T07:58:02.984Z,36
2018-09-06T07:59:08.172Z,36
2018-09-06T08:00:12.770Z,42
2018-09-06T08:01:18.454Z,44
2018-09-06T08:02:23.914Z,43
2018-09-06T08:03:29.027Z,43
2018-09-06T08:04:34.263Z,43
2018-09-06T08:05:39.433Z,43
2018-09-06T08:06:44.935Z,42
2018-09-06T08:07:50.112Z,41
2018-09-06T08:08:55.555Z,41
2018-09-06T08:10:00.401Z,40
2018-09-06T08:11:05.589Z,40
2018-09-06T08:12:10.739Z,39
2018-09-06T08:13:16.852Z,39
2018-09-06T08:14:22.388Z,39
2018-09-06T08:15:28.238Z,39
2018-09-06T08:16:33.110Z,38
2018-09-06T08:17:37.987Z,38
2018-09-06T08:18:42.972Z,38
2018-09-06T08:19:48.296Z,38
2018-09-06T08:20:53.722Z,38
2018-09-06T08:21:58.880Z,38
2018-09-06T08:23:04.045Z,38
2018-09-06T08:24:09.547Z,38
2018-09-06T08:25:15.085Z,37
2018-09-06T08:26:19.985Z,37
2018-09-06T08:28:45.194Z,37
2018-09-06T08:29:50.369Z,37
2018-09-06T08:30:55.562Z,37
2018-09-06T08:32:01.098Z,37
2018-09-06T08:33:05.684Z,37
2018-09-06T08:34:11.465Z,37
2018-09-06T08:35:16.896Z,37
2018-09-06T08:36:22.048Z,37
2018-09-06T08:37:42.100Z,37
2018-09-06T08:38:47.624Z,37
2018-09-06T08:39:53.423Z,37
2018-09-06T08:40:58.333Z,37
2018-09-06T08:42:03.847Z,37
2018-09-06T08:43:09.364Z,37
2018-09-06T08:44:14.817Z,36
2018-09-06T08:45:20.052Z,36
2018-09-06T08:46:26.085Z,36
2018-09-06T08:47:31.364Z,36
2018-09-06T08:48:37.424Z,36
2018-09-06T08:49:42.590Z,36
2018-09-06T08:50:47.782Z,36
2018-09-06T08:51:53.021Z,36
2018-09-06T08:52:57.961Z,36
2018-09-06T08:54:02.255Z,36
2018-09-06T08:55:07.296Z,36
2018-09-06T08:56:12.517Z,36
2018-09-06T08:57:17.104Z,36
2018-09-06T08:58:22.653Z,36
2018-09-06T08:59:28.358Z,36
2018-09-06T09:00:33.967Z,36
2018-09-06T09:01:38.834Z,36
2018-09-06T09:02:44.739Z,36
2018-09-06T09:03:51.156Z,36
2018-09-06T09:04:56.135Z,36
2018-09-06T09:06:01.749Z,36
2018-09-06T09:07:06.654Z,36
2018-09-06T09:08:11.238Z,36
2018-09-06T09:09:16.754Z,36
2018-09-06T09:10:22.220Z,35
2018-09-06T09:11:26.882Z,36
2018-09-06T09:12:32.411Z,36
2018-09-06T09:13:37.934Z,35
2018-09-06T09:14:43.394Z,35
2018-09-06T09:15:48.895Z,35
2018-09-06T09:16:53.867Z,35
2018-09-06T09:17:59.328Z,35
2018-09-06T09:19:04.466Z,35
2018-09-06T09:20:09.333Z,35
2018-09-06T09:21:14.491Z,35
2018-09-06T09:22:19.747Z,35
2018-09-06T09:23:25.339Z,35
2018-09-06T09:24:30.572Z,35
2018-09-06T09:25:35.659Z,35
2018-09-06T09:26:41.459Z,35
2018-09-06T09:27:47.207Z,35
2018-09-06T09:28:52.651Z,35
2018-09-06T09:29:57.008Z,35
2018-09-06T09:31:02.492Z,35
2018-09-06T09:32:07.184Z,35
2018-09-06T09:33:12.324Z,35
2018-09-06T09:34:17.537Z,35
2018-09-06T09:35:22.721Z,35
2018-09-06T09:36:28.272Z,35
2018-09-06T09:37:33.424Z,35
2018-09-06T09:38:38.970Z,35
2018-09-06T09:39:44.381Z,35
2018-09-06T09:40:49.528Z,35
2018-09-06T09:41:54.441Z,35
2018-09-06T09:42:59.847Z,35
2018-09-06T09:44:05.080Z,35
2018-09-06T09:45:10.294Z,35
2018-09-06T09:48:22.787Z,35
2018-09-06T09:49:29.248Z,35
2018-09-06T09:51:38.388Z,35
2018-09-06T09:52:43.612Z,35
2018-09-06T09:53:49.060Z,35
2018-09-06T09:54:54.679Z,35
2018-09-06T09:55:59.301Z,35
2018-09-06T09:57:04.504Z,35
2018-09-06T09:58:10.546Z,35
2018-09-06T09:59:15.716Z,35
2018-09-06T10:00:20.594Z,35
2018-09-06T10:01:25.429Z,35
2018-09-06T10:02:30.293Z,35
2018-09-06T10:03:35.435Z,35
2018-09-06T10:04:40.890Z,35
2018-09-06T10:05:46.569Z,35
2018-09-06T10:06:52.263Z,35
2018-09-06T10:07:57.224Z,35
2018-09-06T10:09:02.465Z,35
2018-09-06T10:10:07.629Z,35
2018-09-06T10:11:13.047Z,35
2018-09-06T10:12:18.529Z,35
2018-09-06T10:13:24.232Z,35
2018-09-06T10:14:29.659Z,35
2018-09-06T10:15:35.103Z,35
2018-09-06T10:16:40.247Z,35
2018-09-06T10:17:45.481Z,35
2018-09-06T10:18:50.929Z,35
2018-09-06T10:19:55.788Z,35
2018-09-06T10:21:00.716Z,35
2018-09-06T10:22:05.920Z,35
2018-09-06T10:23:11.143Z,35
2018-09-06T10:24:16.297Z,35
2018-09-06T10:25:21.849Z,35
2018-09-06T10:26:26.788Z,35
2018-09-06T10:27:32.264Z,36
2018-09-06T10:28:37.496Z,35
2018-09-06T10:29:42.949Z,35
2018-09-06T10:30:48.465Z,35
2018-09-06T10:31:54.016Z,36
2018-09-06T10:32:59.214Z,36
2018-09-06T10:34:04.912Z,36
2018-09-06T10:35:10.153Z,36
2018-09-06T10:36:15.659Z,35
2018-09-06T10:37:21.161Z,35
2018-09-06T10:38:26.323Z,35
2018-09-06T10:39:31.970Z,35
2018-09-06T10:40:37.767Z,35
2018-09-06T10:41:43.458Z,35
2018-09-06T10:42:48.428Z,36
2018-09-06T10:43:53.856Z,36
2018-09-06T10:44:58.811Z,36
2018-09-06T10:46:03.762Z,36
2018-09-06T10:47:09.167Z,36
2018-09-06T10:48:14.345Z,36
2018-09-06T10:49:19.791Z,36
2018-09-06T10:50:24.973Z,36
2018-09-06T10:51:30.249Z,36
2018-09-06T10:52:35.441Z,36
2018-09-06T10:53:40.041Z,36
2018-09-06T10:54:45.784Z,36
2018-09-06T10:55:50.961Z,36
2018-09-06T10:56:55.833Z,36
2018-09-06T10:58:01.759Z,36
2018-09-06T10:59:06.933Z,36
2018-09-06T11:00:12.098Z,36
2018-09-06T11:01:17.202Z,36
2018-09-06T11:02:22.069Z,36
2018-09-06T11:03:27.643Z,36
2018-09-06T11:04:31.970Z,36
2018-09-06T11:05:36.937Z,36
2018-09-06T11:06:42.490Z,36
2018-09-06T11:07:47.725Z,36
2018-09-06T11:08:53.300Z,36
2018-09-06T11:09:58.426Z,36
2018-09-06T11:11:03.924Z,36
2018-09-06T11:12:08.992Z,36
2018-09-06T11:13:14.803Z,35
2018-09-06T11:14:20.257Z,36
2018-09-06T11:15:26.595Z,36
2018-09-06T11:16:31.459Z,35
2018-09-06T11:17:36.373Z,35
2018-09-06T11:18:41.492Z,35
2018-09-06T11:19:47.840Z,35
2018-09-06T11:20:53.392Z,36
2018-09-06T11:21:59.244Z,35
2018-09-06T11:23:05.212Z,35
2018-09-06T11:24:10.112Z,35
2018-09-06T11:25:15.517Z,35
2018-09-06T11:26:20.690Z,35
2018-09-06T11:27:41.046Z,35
2018-09-06T11:28:46.133Z,35
2018-09-06T11:29:50.779Z,35
2018-09-06T11:30:56.468Z,35
2018-09-06T11:32:01.673Z,35
2018-09-06T11:33:05.994Z,35
2018-09-06T11:34:11.781Z,35
2018-09-06T11:35:17.009Z,35
2018-09-06T11:36:22.149Z,35
2018-09-06T11:37:28.127Z,35
2018-09-06T11:38:33.797Z,35
2018-09-06T11:39:38.942Z,35
2018-09-06T11:40:44.085Z,35
2018-09-06T11:41:49.440Z,35
2018-09-06T11:42:54.300Z,36
2018-09-06T11:43:59.785Z,36
2018-09-06T11:45:04.713Z,35
2018-09-06T11:46:10.125Z,35
2018-09-06T11:47:15.406Z,35
2018-09-06T11:48:21.894Z,35
2018-09-06T11:49:27.599Z,35
2018-09-06T11:50:33.044Z,35
2018-09-06T11:51:38.669Z,35
2018-09-06T11:52:43.874Z,35
2018-09-06T11:53:49.303Z,35
2018-09-06T11:54:54.795Z,35
2018-09-06T11:55:59.980Z,35
2018-09-06T11:57:05.124Z,35
2018-09-06T11:58:10.301Z,35
2018-09-06T11:59:15.764Z,35
2018-09-06T12:00:21.135Z,35
2018-09-06T12:01:41.202Z,35
2018-09-06T12:02:46.064Z,35
2018-09-06T12:03:51.814Z,35
2018-09-06T12:04:56.998Z,35
2018-09-06T12:06:01.913Z,35
2018-09-06T12:07:06.846Z,35
2018-09-06T12:08:11.995Z,35
2018-09-06T12:09:16.614Z,35
2018-09-06T12:10:22.159Z,35
2018-09-06T12:11:27.299Z,35
2018-09-06T12:12:32.263Z,35
2018-09-06T12:13:37.268Z,35
2018-09-06T12:14:42.184Z,35
2018-09-06T12:15:47.703Z,35
2018-09-06T12:16:52.848Z,35
2018-09-06T12:17:58.410Z,35
2018-09-06T12:19:04.144Z,35
2018-09-06T12:20:09.102Z,35
2018-09-06T12:21:13.987Z,36
2018-09-06T12:22:19.461Z,36
2018-09-06T12:23:24.913Z,35
2018-09-06T12:24:30.330Z,36
2018-09-06T12:25:35.869Z,36
2018-09-06T12:26:40.629Z,36
2018-09-06T12:27:45.970Z,36
2018-09-06T12:28:50.860Z,36
2018-09-06T12:29:55.726Z,36
2018-09-06T12:31:01.408Z,36
2018-09-06T12:32:06.706Z,35
2018-09-06T12:33:12.049Z,35
2018-09-06T12:34:17.730Z,35
2018-09-06T12:35:22.927Z,35
2018-09-06T12:36:27.809Z,36
2018-09-06T12:37:33.005Z,36
2018-09-06T12:38:38.164Z,36
2018-09-06T12:39:43.774Z,36
2018-09-06T12:40:48.929Z,36
2018-09-06T12:41:54.081Z,36
2018-09-06T12:42:59.490Z,36
2018-09-06T12:44:04.751Z,36
2018-09-06T12:45:09.628Z,36
2018-09-06T12:46:15.400Z,35
2018-09-06T12:47:20.896Z,35
2018-09-06T12:48:26.257Z,35
2018-09-06T12:49:31.327Z,35
2018-09-06T12:50:37.179Z,36
2018-09-06T12:51:42.050Z,36
2018-09-06T12:52:46.901Z,35
2018-09-06T12:53:51.507Z,36
2018-09-06T12:54:57.048Z,36
2018-09-06T12:56:02.149Z,36
2018-09-06T12:57:07.302Z,36
2018-09-06T12:58:12.722Z,36
2018-09-06T12:59:17.611Z,36
2018-09-06T13:00:22.763Z,36
2018-09-06T13:01:43.155Z,36
2018-09-06T13:02:48.028Z,36
2018-09-06T13:03:53.158Z,36
2018-09-06T13:04:58.305Z,36
2018-09-06T13:06:03.279Z,36
2018-09-06T13:07:09.138Z,36
2018-09-06T13:08:14.439Z,36
2018-09-06T13:09:19.661Z,36
2018-09-06T13:10:25.082Z,36
2018-09-06T13:11:29.944Z,36
2018-09-06T13:12:35.346Z,36
2018-09-06T13:13:40.776Z,36
2018-09-06T13:14:46.421Z,36
2018-09-06T13:15:51.915Z,37
2018-09-06T13:16:56.792Z,37
2018-09-06T13:18:02.432Z,37
2018-09-06T13:19:08.335Z,37
2018-09-06T13:20:13.566Z,37
2018-09-06T13:21:18.716Z,37
2018-09-06T13:22:24.015Z,37
2018-09-06T13:23:29.458Z,37
2018-09-06T13:24:35.187Z,37
2018-09-06T13:25:40.401Z,37
2018-09-06T13:26:45.572Z,37
2018-09-06T13:27:50.795Z,37
2018-09-06T13:28:55.661Z,37
2018-09-06T13:30:00.863Z,37
2018-09-06T13:31:06.280Z,37
2018-09-06T13:32:11.812Z,37
2018-09-06T13:33:17.286Z,37
2018-09-06T13:34:23.098Z,37
2018-09-06T13:35:28.076Z,37
2018-09-06T13:36:33.427Z,37
2018-09-06T13:37:38.855Z,37
2018-09-06T13:38:43.457Z,37
2018-09-06T13:39:49.189Z,37
2018-09-06T13:40:54.052Z,37
2018-09-06T13:41:58.905Z,37
2018-09-06T13:43:04.749Z,37
2018-09-06T13:44:09.898Z,37
2018-09-06T13:45:15.516Z,37
2018-09-06T13:46:21.293Z,38
2018-09-06T13:47:26.181Z,37
2018-09-06T13:48:31.287Z,37
2018-09-06T13:49:36.458Z,37
2018-09-06T13:50:41.102Z,37
2018-09-06T13:51:46.221Z,38
2018-09-06T13:52:51.389Z,37
2018-09-06T13:53:56.529Z,37
2018-09-06T13:55:01.912Z,37
2018-09-06T13:56:06.831Z,38
2018-09-06T13:57:12.314Z,38
2018-09-06T13:58:18.095Z,38
2018-09-06T13:59:23.354Z,38
2018-09-06T14:00:28.524Z,38
2018-09-06T14:01:33.750Z,38
2018-09-06T14:02:38.853Z,38
2018-09-06T14:03:44.262Z,38
2018-09-06T14:04:49.176Z,38
2018-09-06T14:05:54.854Z,38
2018-09-06T14:07:00.436Z,38
2018-09-06T14:08:05.383Z,38
2018-09-06T14:09:10.611Z,39
2018-09-06T14:10:16.059Z,38
2018-09-06T14:11:21.289Z,38
2018-09-06T14:12:27.289Z,39
2018-09-06T14:13:32.761Z,39
2018-09-06T14:14:37.948Z,39
2018-09-06T14:15:43.394Z,39
2018-09-06T14:16:48.342Z,39
2018-09-06T14:17:53.389Z,39
2018-09-06T14:18:58.542Z,39
2018-09-06T14:20:04.207Z,39
2018-09-06T14:21:09.672Z,39
2018-09-06T14:22:14.819Z,39
2018-09-06T14:23:20.319Z,39
2018-09-06T14:24:40.447Z,39
2018-09-06T14:25:45.906Z,39
2018-09-06T14:26:51.386Z,39
2018-09-06T14:27:56.814Z,39
2018-09-06T14:29:01.968Z,39
2018-09-06T14:30:07.632Z,39
2018-09-06T14:31:13.450Z,39
2018-09-06T14:32:18.599Z,40
2018-09-06T14:33:24.069Z,40
2018-09-06T14:34:44.412Z,40
2018-09-06T14:35:49.269Z,40
2018-09-06T14:36:54.198Z,40
2018-09-06T14:37:59.702Z,40
2018-09-06T14:39:05.026Z,40
2018-09-06T14:40:11.452Z,40
2018-09-06T14:41:16.686Z,40
2018-09-06T14:42:22.072Z,40
2018-09-06T14:43:27.224Z,40
2018-09-06T14:44:32.370Z,40
2018-09-06T14:45:38.119Z,40
2018-09-06T14:46:43.344Z,40
2018-09-06T14:47:48.773Z,40
2018-09-06T14:48:53.643Z,40
2018-09-06T14:49:58.505Z,40
2018-09-06T14:51:03.951Z,40
2018-09-06T14:52:09.792Z,40
2018-09-06T14:53:15.329Z,40
2018-09-06T14:54:20.795Z,40
2018-09-06T14:55:40.865Z,40
2018-09-06T14:56:45.473Z,40
2018-09-06T14:57:51.302Z,40
2018-09-06T14:58:55.891Z,40
2018-09-06T15:00:01.374Z,40
2018-09-06T15:01:06.562Z,40
2018-09-06T15:02:11.459Z,40
2018-09-06T15:03:16.588Z,40
2018-09-06T15:04:22.008Z,40
2018-09-06T15:05:27.154Z,40
2018-09-06T15:06:33.078Z,41
2018-09-06T15:07:38.279Z,41
2018-09-06T15:08:43.594Z,41
2018-09-06T15:09:48.829Z,41
2018-09-06T15:10:54.263Z,41
2018-09-06T15:11:59.695Z,41
2018-09-06T15:13:04.867Z,41
2018-09-06T15:14:09.510Z,41
2018-09-06T15:15:14.381Z,40
2018-09-06T15:16:20.207Z,40
2018-09-06T15:17:25.371Z,40
2018-09-06T15:18:30.977Z,40
2018-09-06T15:19:35.865Z,41
2018-09-06T15:20:41.037Z,41
2018-09-06T15:21:46.485Z,40
2018-09-06T15:22:51.628Z,40
2018-09-06T15:23:56.823Z,40
2018-09-06T15:25:02.220Z,40
2018-09-06T15:26:07.422Z,41
2018-09-06T15:27:12.608Z,40
2018-09-06T15:28:18.106Z,41
2018-09-06T15:29:23.535Z,40
2018-09-06T15:30:28.940Z,41
2018-09-06T15:31:34.090Z,40
2018-09-06T15:32:38.768Z,40
2018-09-06T15:33:44.193Z,40
2018-09-06T15:34:49.637Z,40
2018-09-06T15:35:55.106Z,40
2018-09-06T15:37:00.906Z,41
2018-09-06T15:38:05.498Z,41
2018-09-06T15:39:10.981Z,41